Pagrindinis puslapis
METAR-TAF:

METAR-TAF

Oro uostai :

Jendouba, Tunisas

platuma: 36-29N, ilguma: 008-48E, Aukštis: 143 m

Dabartinis oras

Ataskaita buvo paskelbta 36 minutes, ne 16:00 UTC
Vėjas 7 kt iš Rytų/Pietryčių, svyruoja nuo Rytų/Šiaurės Rytų ir Pietų/Pietryčių
Temperatūra 19°C
Drėgmė 49%
Slėgis 1023 hPa
Matomumas 10 km arba daugiau
Išsisklaidę debesys ne aukštis 2000 ft

METAR: DTTN 221600Z 11007KT 070V150 9999 SCT020 19/08 Q1023

Laikas: 17:36 (16:36 UTC)


TAF: trūkstamas

Orai ataskaitas ir orų prognozės (METAR, TAF).

turimą stotys yra geltonos ir raudonos taškus žemėlapyje.

Perkelti pele per norėdami pamatyti stoties vardą.

Tada spustelėkite, norėdami matyti oro stebėjimo ir prognozės.

Norėdami pakeisti žemėlapį: spustelėkite ant žalios mygtukų su juodo kryžiaus žemyn,; žalią mygtuką su brūkšneliu, jei norite nutolinti; arba žalių rodyklių gretimoms žemėlapius.


METAR-TAF: